Airfield :
LOGIN :

Register | Disclaimer

   EN    FR    IT 

 










Legend :    VFR   Marginal VFR   IFR   Intensive IFR   Very Intensive IFR
Visi :
Ceiling :
>= 8 km
>= 3000ft
5 to 8 km
1000 to 3000 ft
1500m to 5 km
500 to 1000 ft
800 to 1500m
200 to 500 ft
< 800m
< 200 ft
Symbols :   Thunderstorms  Fog  Heavy snow  Heavy precipitations  Wind > 20 kt
SIGMETs :     Misc.  Thunderstorms  Icing  Turbulence  Mountain Waves  Volcanic Ashes






- Airport Elevation : 3368 ft


LSGC - Les Eplatures

CURRENT METAR :
  • 101820Z AUTO 23004KT CAVOK 09/01 Q1012

EXPIRED METARs :
  • 101750Z AUTO 22006KT 180V250 CAVOK 09/01 Q1012
  • 101720Z 21010KT 170V240 9999 FEW044 10/01 Q1012 WS R24
  • 101650Z 20009KT 9999 FEW044 11/02 Q1012 WS R24
  • 101620Z 22011KT 9999 FEW044 11/01 Q1012 WS R24
  • 101550Z 22009KT 180V260 9999 FEW044 11/01 Q1012 WS R24

TAF TAF LSGC
Valid from the 10 at 15:00 until the 11 at 00:00 UTC


101425Z 1015/1024 21010KT 9999 SCT045



MET'MAP, your aeronautical weather chart ! - Copyright ORBIFLY December 2007 - Disclaimer

ORBIFLY MET'MAP TEAM :

Programming & Development : Alexandra Zaïnal
Concept & original design : Baudouin d'Aumeries
Assistance for programming : Marc-Olivier Méhu
Technical & hardware support : Manuel Goepfert

Contact : metmap@orbifly.com




SOURCES & CREDITS :

   NOAA